createdAt,value
2022-10-25T00:01:43.852Z,2.00
2022-10-25T00:04:10.547Z,1.50
2022-10-25T00:06:37.233Z,1.42
2022-10-25T00:09:04.180Z,1.15
2022-10-25T00:11:31.405Z,1.52
2022-10-25T00:14:00.672Z,1.58
2022-10-25T00:16:30.154Z,1.52
2022-10-25T00:18:56.832Z,1.40
2022-10-25T00:21:23.585Z,1.45
2022-10-25T00:23:51.504Z,1.55
2022-10-25T00:26:19.210Z,1.80
2022-10-25T00:28:46.000Z,1.58
2022-10-25T00:31:15.901Z,1.65
2022-10-25T00:33:43.855Z,1.70
2022-10-25T00:36:13.244Z,2.67
2022-10-25T00:38:40.122Z,2.33
2022-10-25T00:41:07.761Z,1.83
2022-10-25T00:43:47.813Z,2.20
2022-10-25T00:46:26.866Z,1.88
2022-10-25T00:49:04.025Z,1.98
2022-10-25T00:51:39.146Z,1.60
2022-10-25T00:54:07.822Z,1.77
2022-10-25T00:56:37.931Z,1.52
2022-10-25T00:59:09.112Z,1.80
2022-10-25T01:01:36.840Z,1.30
2022-10-25T01:04:07.565Z,1.20
2022-10-25T01:06:47.729Z,1.10
2022-10-25T01:09:19.748Z,1.45
2022-10-25T01:11:46.413Z,1.52
2022-10-25T01:14:15.491Z,1.17
2022-10-25T01:17:21.500Z,1.02
2022-10-25T01:20:16.583Z,1.23
2022-10-25T01:23:01.125Z,1.52
2022-10-25T01:26:05.217Z,1.05
2022-10-25T01:29:13.073Z,0.95
2022-10-25T01:32:17.080Z,1.30
2022-10-25T01:34:55.381Z,0.90
2022-10-25T01:37:30.766Z,0.88
2022-10-25T01:40:00.023Z,0.95
2022-10-25T01:42:37.812Z,1.33
2022-10-25T01:45:20.853Z,1.08
2022-10-25T01:47:51.970Z,1.00
2022-10-25T01:50:26.204Z,0.88
2022-10-25T01:55:50.863Z,1.13
2022-10-25T01:58:38.221Z,1.05
2022-10-25T02:01:21.958Z,1.00
2022-10-25T02:04:05.865Z,1.30
2022-10-25T02:06:55.321Z,0.90
2022-10-25T02:09:32.998Z,0.70
2022-10-25T02:12:02.081Z,1.17
2022-10-25T02:14:38.912Z,1.27
2022-10-25T02:19:46.770Z,1.38
2022-10-25T02:22:15.597Z,1.40
2022-10-25T02:24:45.509Z,1.20
2022-10-25T02:27:13.706Z,1.27
2022-10-25T02:29:41.372Z,1.00
2022-10-25T02:32:08.364Z,1.50
2022-10-25T02:34:35.058Z,1.40
2022-10-25T02:37:01.749Z,1.23
2022-10-25T02:39:31.370Z,0.82
2022-10-25T02:41:58.629Z,1.40
2022-10-25T02:44:25.241Z,1.20
2022-10-25T02:46:51.832Z,1.13
2022-10-25T02:49:18.401Z,1.38
2022-10-25T02:51:45.016Z,1.88
2022-10-25T02:54:11.685Z,1.50
2022-10-25T02:56:38.587Z,1.63
2022-10-25T02:59:05.250Z,1.33
2022-10-25T03:01:31.921Z,1.20
2022-10-25T03:03:58.617Z,1.10
2022-10-25T03:06:25.201Z,0.95
2022-10-25T03:08:51.773Z,1.58
2022-10-25T03:11:18.405Z,1.15
2022-10-25T03:13:45.028Z,1.15
2022-10-25T03:16:11.723Z,1.30
2022-10-25T03:18:38.510Z,1.50
2022-10-25T03:21:05.950Z,1.65
2022-10-25T03:23:33.072Z,1.33
2022-10-25T03:26:00.756Z,1.30
2022-10-25T03:28:29.375Z,1.75
2022-10-25T03:30:57.199Z,1.60
2022-10-25T03:33:24.863Z,1.98
2022-10-25T03:35:53.228Z,1.25
2022-10-25T03:38:20.204Z,1.35
2022-10-25T03:40:47.095Z,1.60
2022-10-25T03:43:13.990Z,1.50
2022-10-25T03:45:40.659Z,1.42
2022-10-25T03:48:07.453Z,1.90
2022-10-25T03:50:35.941Z,1.70
2022-10-25T03:53:03.659Z,1.48
2022-10-25T03:55:30.340Z,2.15
2022-10-25T03:57:56.925Z,1.65
2022-10-25T04:00:23.671Z,1.67
2022-10-25T04:03:02.439Z,1.60
2022-10-25T04:05:30.765Z,1.52
2022-10-25T04:07:57.723Z,1.83
2022-10-25T04:10:25.349Z,1.92
2022-10-25T04:12:53.691Z,2.20
2022-10-25T04:15:21.688Z,2.05
2022-10-25T04:17:52.490Z,1.83
2022-10-25T04:20:20.162Z,2.22
2022-10-25T04:22:53.974Z,1.80
2022-10-25T04:25:20.819Z,2.30
2022-10-25T04:27:47.811Z,2.83
2022-10-25T04:30:14.771Z,2.40
2022-10-25T04:32:41.337Z,2.20
2022-10-25T04:35:08.462Z,2.10
2022-10-25T04:37:35.008Z,2.92
2022-10-25T04:40:01.651Z,2.67
2022-10-25T04:42:28.210Z,2.40
2022-10-25T04:44:54.811Z,2.55
2022-10-25T04:47:21.385Z,2.50
2022-10-25T04:49:48.008Z,2.35
2022-10-25T04:52:14.608Z,2.75
2022-10-25T04:54:41.494Z,2.78
2022-10-25T04:57:08.113Z,2.83
2022-10-25T04:59:34.658Z,2.22
2022-10-25T05:02:01.321Z,2.00
2022-10-25T05:04:27.924Z,2.00
2022-10-25T05:06:54.516Z,1.55
2022-10-25T05:09:21.153Z,1.35
2022-10-25T05:11:47.736Z,1.30
2022-10-25T05:14:14.825Z,1.70
2022-10-25T05:16:42.072Z,1.90
2022-10-25T05:19:08.708Z,2.05
2022-10-25T05:21:35.475Z,2.33
2022-10-25T05:24:02.606Z,2.25
2022-10-25T05:26:30.569Z,2.67
2022-10-25T05:28:57.521Z,2.67
2022-10-25T05:31:26.646Z,3.28
2022-10-25T05:33:56.324Z,3.53
2022-10-25T05:36:23.448Z,4.20
2022-10-25T05:38:50.273Z,4.15
2022-10-25T05:41:18.370Z,5.10
2022-10-25T05:43:46.163Z,5.30
2022-10-25T05:46:16.486Z,4.78
2022-10-25T05:48:48.361Z,4.40
2022-10-25T05:51:33.277Z,3.80
2022-10-25T05:54:12.576Z,4.47
2022-10-25T05:56:40.102Z,4.00
2022-10-25T05:59:10.040Z,3.63
2022-10-25T06:01:42.365Z,3.90
2022-10-25T06:04:09.682Z,4.18
2022-10-25T06:06:38.518Z,3.42
2022-10-25T06:09:05.962Z,4.05
2022-10-25T06:11:33.089Z,3.70
2022-10-25T06:13:59.684Z,4.18
2022-10-25T06:16:26.409Z,3.28
2022-10-25T06:18:54.244Z,3.60
2022-10-25T06:21:23.511Z,3.70
2022-10-25T06:23:50.623Z,3.33
2022-10-25T06:26:25.851Z,3.92
2022-10-25T06:28:54.571Z,3.30
2022-10-25T06:31:21.956Z,3.45
2022-10-25T06:33:49.063Z,3.13
2022-10-25T06:36:20.825Z,3.00
2022-10-25T06:38:48.765Z,3.08
2022-10-25T06:41:18.225Z,4.15
2022-10-25T06:43:45.341Z,3.30
2022-10-25T06:46:30.489Z,3.40
2022-10-25T06:48:57.806Z,3.38
2022-10-25T06:51:26.186Z,2.70
2022-10-25T06:53:57.774Z,3.38
2022-10-25T06:56:25.074Z,4.07
2022-10-25T06:58:51.749Z,5.88
2022-10-25T07:01:20.591Z,4.57
2022-10-25T07:03:50.303Z,4.07
2022-10-25T07:06:19.169Z,3.70
2022-10-25T07:08:47.282Z,3.92
2022-10-25T07:11:17.164Z,3.88
2022-10-25T07:13:44.302Z,3.63
2022-10-25T07:16:13.217Z,3.50
2022-10-25T07:18:40.344Z,3.10
2022-10-25T07:21:10.380Z,3.45
2022-10-25T07:23:42.043Z,2.85
2022-10-25T07:26:21.677Z,3.17
2022-10-25T07:28:50.486Z,2.70
2022-10-25T07:31:23.358Z,3.72
2022-10-25T07:33:51.578Z,3.28
2022-10-25T07:36:18.493Z,3.25
2022-10-25T07:38:45.585Z,3.20
2022-10-25T07:41:12.357Z,3.33
2022-10-25T07:43:38.950Z,3.50
2022-10-25T07:46:06.699Z,3.90
2022-10-25T07:48:33.912Z,3.90
2022-10-25T07:51:05.736Z,3.88
2022-10-25T07:53:32.564Z,3.60
2022-10-25T07:55:59.242Z,4.53
2022-10-25T07:58:25.845Z,3.47
2022-10-25T08:00:52.469Z,3.25
2022-10-25T08:03:19.109Z,4.43
2022-10-25T08:05:47.433Z,9.65
2022-10-25T08:08:15.030Z,20.85
2022-10-25T08:10:43.679Z,9.10
2022-10-25T08:13:10.536Z,5.18
2022-10-25T08:15:37.506Z,3.63
2022-10-25T08:18:04.885Z,3.13
2022-10-25T08:20:56.790Z,3.50
2022-10-25T08:23:18.496Z,3.45
2022-10-25T08:25:46.021Z,2.80
2022-10-25T08:28:12.610Z,2.55
2022-10-25T08:30:40.896Z,2.70
2022-10-25T08:33:11.404Z,2.58
2022-10-25T08:35:38.661Z,2.70
2022-10-25T08:38:05.873Z,2.13
2022-10-25T08:40:52.775Z,2.35
2022-10-25T08:43:30.401Z,2.70
2022-10-25T08:46:09.707Z,2.42
2022-10-25T08:48:43.556Z,2.20
2022-10-25T08:51:19.238Z,2.35
2022-10-25T08:53:50.025Z,2.47
2022-10-25T08:56:19.018Z,2.22
2022-10-25T08:58:55.428Z,2.42
2022-10-25T09:01:46.500Z,2.42
2022-10-25T09:04:15.338Z,2.33
2022-10-25T09:07:06.184Z,2.47
2022-10-25T09:10:02.206Z,2.30
2022-10-25T09:12:53.856Z,2.25
2022-10-25T09:15:40.527Z,2.65
2022-10-25T09:18:16.097Z,2.33
2022-10-25T09:20:58.326Z,2.22
2022-10-25T09:23:29.670Z,2.53
2022-10-25T09:26:05.152Z,2.35
2022-10-25T09:28:55.078Z,1.80
2022-10-25T09:31:25.735Z,2.13
2022-10-25T09:34:03.105Z,2.05
2022-10-25T09:36:42.601Z,2.17
2022-10-25T09:39:32.041Z,2.50
2022-10-25T09:42:00.492Z,2.15
2022-10-25T09:44:36.348Z,2.38
2022-10-25T09:47:17.737Z,2.20
2022-10-25T09:49:51.972Z,2.33
2022-10-25T09:52:42.956Z,2.80
2022-10-25T09:55:23.423Z,2.38
2022-10-25T09:57:50.267Z,2.95
2022-10-25T10:00:17.198Z,2.50
2022-10-25T10:02:43.984Z,2.65
2022-10-25T10:05:19.826Z,2.63
2022-10-25T10:07:48.267Z,2.75
2022-10-25T10:10:24.022Z,2.60
2022-10-25T10:15:36.506Z,2.38
2022-10-25T10:18:26.539Z,2.63
2022-10-25T10:21:09.813Z,2.25
2022-10-25T10:23:48.886Z,2.17
2022-10-25T10:26:36.011Z,2.28
2022-10-25T10:29:24.468Z,2.33
2022-10-25T10:31:53.882Z,2.40
2022-10-25T10:34:28.834Z,2.40
2022-10-25T10:37:25.580Z,2.85
2022-10-25T10:39:56.136Z,2.55
2022-10-25T10:42:24.115Z,2.60
2022-10-25T10:45:08.822Z,2.10
2022-10-25T10:47:42.615Z,2.30
2022-10-25T10:50:32.507Z,2.47
2022-10-25T10:53:00.951Z,2.53
2022-10-25T10:55:39.663Z,2.20
2022-10-25T10:58:18.830Z,2.33
2022-10-25T11:00:55.652Z,2.50
2022-10-25T11:03:49.083Z,2.42
2022-10-25T11:06:36.249Z,2.65
2022-10-25T11:09:22.003Z,2.50
2022-10-25T11:12:26.973Z,2.47
2022-10-25T11:14:55.736Z,2.53
2022-10-25T11:17:32.829Z,2.00
2022-10-25T11:20:25.994Z,2.47
2022-10-25T11:23:05.563Z,1.90
2022-10-25T11:25:49.398Z,2.20
2022-10-25T11:28:42.876Z,2.17
2022-10-25T11:31:53.583Z,2.38
2022-10-25T11:34:44.916Z,2.80
2022-10-25T11:37:31.288Z,1.92
2022-10-25T11:40:17.457Z,2.23
2022-10-25T11:43:16.706Z,2.30
2022-10-25T11:45:44.784Z,2.15
2022-10-25T11:48:32.640Z,1.98
2022-10-25T11:51:24.091Z,1.83
2022-10-25T11:54:27.862Z,2.10
2022-10-25T11:57:29.582Z,2.05
2022-10-25T12:00:16.988Z,1.95
2022-10-25T12:03:02.958Z,1.60
2022-10-25T12:06:03.291Z,1.60
2022-10-25T12:08:54.213Z,1.92
2022-10-25T12:11:31.505Z,1.70
2022-10-25T12:14:03.727Z,1.85
2022-10-25T12:16:31.770Z,1.88
2022-10-25T12:19:19.286Z,1.60
2022-10-25T12:22:13.409Z,1.60
2022-10-25T12:24:44.904Z,1.63
2022-10-25T12:27:13.197Z,1.45
2022-10-25T12:29:44.042Z,1.85
2022-10-25T12:32:20.164Z,1.77
2022-10-25T12:35:00.376Z,1.88
2022-10-25T12:37:41.137Z,1.67
2022-10-25T12:40:15.973Z,1.80
2022-10-25T12:43:01.680Z,1.65
2022-10-25T12:45:53.511Z,1.17
2022-10-25T12:48:53.827Z,1.40
2022-10-25T12:51:41.301Z,1.73
2022-10-25T12:54:29.380Z,1.63
2022-10-25T12:57:21.158Z,2.25
2022-10-25T13:00:03.214Z,1.55
2022-10-25T13:02:57.550Z,1.50
2022-10-25T13:05:59.970Z,1.40
2022-10-25T13:08:29.480Z,1.70
2022-10-25T13:11:05.908Z,1.52
2022-10-25T13:13:48.124Z,1.48
2022-10-25T13:16:32.415Z,1.42
2022-10-25T13:19:42.395Z,1.30
2022-10-25T13:22:34.245Z,2.05
2022-10-25T13:25:16.550Z,1.50
2022-10-25T13:28:14.352Z,1.88
2022-10-25T13:30:41.434Z,1.52
2022-10-25T13:33:28.053Z,1.80
2022-10-25T13:35:54.655Z,1.80
2022-10-25T13:38:23.968Z,1.70
2022-10-25T13:41:05.299Z,1.70
2022-10-25T13:43:32.559Z,1.85
2022-10-25T13:45:59.247Z,1.70
2022-10-25T13:48:34.453Z,1.90
2022-10-25T13:51:11.356Z,1.88
2022-10-25T13:53:48.223Z,2.05
2022-10-25T13:56:23.942Z,2.25
2022-10-25T13:58:51.243Z,1.73
2022-10-25T14:01:18.112Z,1.58
2022-10-25T14:03:54.082Z,1.65
2022-10-25T14:06:25.298Z,1.50
2022-10-25T14:09:01.004Z,2.00
2022-10-25T14:11:38.455Z,1.83
2022-10-25T14:14:24.168Z,2.30
2022-10-25T14:17:13.413Z,1.98
2022-10-25T14:19:44.435Z,2.50
2022-10-25T14:22:15.788Z,2.80
2022-10-25T14:24:45.229Z,2.45
2022-10-25T14:27:33.713Z,2.83
2022-10-25T14:30:14.017Z,5.60
2022-10-25T14:32:55.546Z,7.32
2022-10-25T14:35:24.041Z,7.70
2022-10-25T14:37:51.059Z,4.05
2022-10-25T14:40:28.983Z,5.57
2022-10-25T14:42:56.365Z,4.68
2022-10-25T14:45:25.438Z,4.15
2022-10-25T14:47:52.745Z,4.53
2022-10-25T14:50:25.124Z,9.60
2022-10-25T14:52:52.390Z,30.95
2022-10-25T14:55:28.083Z,15.73
2022-10-25T14:57:55.381Z,6.10
2022-10-25T15:00:23.651Z,7.45
2022-10-25T15:02:56.144Z,7.68
2022-10-25T15:05:25.053Z,6.60
2022-10-25T15:07:56.605Z,5.45
2022-10-25T15:10:38.152Z,6.07
2022-10-25T15:13:28.706Z,6.35
2022-10-25T15:15:56.242Z,11.10
2022-10-25T15:18:38.745Z,6.88
2022-10-25T15:21:14.084Z,6.63
2022-10-25T15:23:42.634Z,6.38
2022-10-25T15:26:27.948Z,8.00
2022-10-25T15:28:58.268Z,7.30
2022-10-25T15:31:27.641Z,7.53
2022-10-25T15:34:03.518Z,16.42
2022-10-25T15:36:32.289Z,18.67
2022-10-25T15:39:12.960Z,10.38
2022-10-25T15:41:43.368Z,9.02
2022-10-25T15:44:09.926Z,11.13
2022-10-25T15:46:38.033Z,9.80
2022-10-25T15:49:11.248Z,10.30
2022-10-25T15:51:41.421Z,8.80
2022-10-25T15:54:34.622Z,9.10
2022-10-25T15:57:01.297Z,11.98
2022-10-25T15:59:27.897Z,13.85
2022-10-25T16:01:55.552Z,20.58
2022-10-25T16:04:22.345Z,12.00
2022-10-25T16:06:49.011Z,9.00
2022-10-25T16:09:15.621Z,11.32
2022-10-25T16:11:47.168Z,8.75
2022-10-25T16:14:23.542Z,7.88
2022-10-25T16:16:50.375Z,7.85
2022-10-25T16:19:18.914Z,8.30
2022-10-25T16:21:45.735Z,8.50
2022-10-25T16:24:13.005Z,9.20
2022-10-25T16:26:43.340Z,7.43
2022-10-25T16:29:18.579Z,11.55
2022-10-25T16:31:45.204Z,15.50
2022-10-25T16:34:12.538Z,16.67
2022-10-25T16:36:39.142Z,17.02
2022-10-25T16:39:07.485Z,15.77
2022-10-25T16:41:36.923Z,23.48
2022-10-25T16:44:03.609Z,36.97
2022-10-25T16:46:30.197Z,45.90
2022-10-25T16:48:59.529Z,46.25
2022-10-25T16:51:28.768Z,41.75
2022-10-25T16:53:55.437Z,33.65
2022-10-25T16:56:22.116Z,28.33
2022-10-25T16:58:48.670Z,25.10
2022-10-25T17:01:22.681Z,15.82
2022-10-25T17:03:50.578Z,12.90
2022-10-25T17:06:41.686Z,12.93
2022-10-25T17:09:05.370Z,11.35
2022-10-25T17:11:31.989Z,12.70
2022-10-25T17:13:58.609Z,11.10
2022-10-25T17:16:25.229Z,10.02
2022-10-25T17:18:51.822Z,9.45
2022-10-25T17:21:18.410Z,9.85
2022-10-25T17:23:45.211Z,9.45
2022-10-25T17:26:11.930Z,9.77
2022-10-25T17:28:43.123Z,16.20
2022-10-25T17:31:12.940Z,19.15
2022-10-25T17:33:40.605Z,20.38
2022-10-25T17:36:15.623Z,16.35
2022-10-25T17:38:42.962Z,19.05
2022-10-25T17:41:10.089Z,25.23
2022-10-25T17:43:38.216Z,32.25
2022-10-25T17:46:08.109Z,24.23
2022-10-25T17:48:34.838Z,21.73
2022-10-25T17:51:04.414Z,18.48
2022-10-25T17:53:31.265Z,11.93
2022-10-25T17:55:58.045Z,10.50
2022-10-25T17:58:24.932Z,9.48
2022-10-25T18:00:54.296Z,11.50
2022-10-25T18:03:21.249Z,9.35
2022-10-25T18:05:48.514Z,9.80
2022-10-25T18:08:15.469Z,8.52
2022-10-25T18:10:42.048Z,8.80
2022-10-25T18:13:08.748Z,9.80
2022-10-25T18:15:38.175Z,9.85
2022-10-25T18:18:04.839Z,9.73
2022-10-25T18:20:31.469Z,11.02
2022-10-25T18:22:58.196Z,14.20
2022-10-25T18:25:24.889Z,9.98
2022-10-25T18:27:51.581Z,9.00
2022-10-25T18:30:18.349Z,8.38
2022-10-25T18:32:44.939Z,7.95
2022-10-25T18:35:11.617Z,8.57
2022-10-25T18:37:38.244Z,8.85
2022-10-25T18:40:05.855Z,8.45
2022-10-25T18:42:32.498Z,8.05
2022-10-25T18:44:59.149Z,7.97
2022-10-25T18:47:25.739Z,9.05
2022-10-25T18:49:52.366Z,8.13
2022-10-25T18:52:18.978Z,9.00
2022-10-25T18:54:45.597Z,10.38
2022-10-25T18:57:13.354Z,11.38
2022-10-25T18:59:39.936Z,9.52
2022-10-25T19:02:06.759Z,10.02
2022-10-25T19:04:33.521Z,10.68
2022-10-25T19:07:00.073Z,9.32
2022-10-25T19:09:26.702Z,9.57
2022-10-25T19:11:53.272Z,12.93
2022-10-25T19:14:19.908Z,12.27
2022-10-25T19:16:46.497Z,12.05
2022-10-25T19:19:13.234Z,9.20
2022-10-25T19:21:39.940Z,9.25
2022-10-25T19:24:07.088Z,8.35
2022-10-25T19:26:33.719Z,8.05
2022-10-25T19:29:01.106Z,8.30
2022-10-25T19:31:28.570Z,7.63
2022-10-25T19:33:58.314Z,7.30
2022-10-25T19:36:24.997Z,8.32
2022-10-25T19:38:51.789Z,9.95
2022-10-25T19:41:20.734Z,16.17
2022-10-25T19:43:47.847Z,21.35
2022-10-25T19:46:15.244Z,21.75
2022-10-25T19:48:41.955Z,22.88
2022-10-25T19:51:17.301Z,30.27
2022-10-25T19:53:44.265Z,17.13
2022-10-25T19:56:23.374Z,9.82
2022-10-25T19:58:50.727Z,8.82
2022-10-25T20:01:18.841Z,9.30
2022-10-25T20:03:48.539Z,8.52
2022-10-25T20:06:24.405Z,9.10
2022-10-25T20:08:52.287Z,9.20
2022-10-25T20:11:20.761Z,9.48
2022-10-25T20:13:47.469Z,8.98
2022-10-25T20:16:14.578Z,8.32
2022-10-25T20:18:42.521Z,9.50
2022-10-25T20:21:13.270Z,9.32
2022-10-25T20:23:41.639Z,10.45
2022-10-25T20:26:15.497Z,10.20
2022-10-25T20:28:42.430Z,10.13
2022-10-25T20:31:09.917Z,10.55
2022-10-25T20:33:36.926Z,11.45
2022-10-25T20:36:07.330Z,15.40
2022-10-25T20:38:35.526Z,17.52
2022-10-25T20:41:10.756Z,13.50
2022-10-25T20:43:38.266Z,14.95
2022-10-25T20:46:06.882Z,17.10
2022-10-25T20:48:33.509Z,20.55
2022-10-25T20:51:04.050Z,18.90
2022-10-25T20:53:34.588Z,18.80
2022-10-25T20:56:01.265Z,13.35
2022-10-25T20:58:27.881Z,11.60
2022-10-25T21:00:57.289Z,11.77
2022-10-25T21:03:29.276Z,11.63
2022-10-25T21:06:03.265Z,11.07
2022-10-25T21:08:30.694Z,12.27
2022-10-25T21:11:02.422Z,15.02
2022-10-25T21:13:34.471Z,13.75
2022-10-25T21:16:09.372Z,20.85
2022-10-25T21:18:37.206Z,20.70
2022-10-25T21:21:06.484Z,18.63
2022-10-25T21:23:33.301Z,14.95
2022-10-25T21:26:07.660Z,13.43
2022-10-25T21:28:36.326Z,12.88
2022-10-25T21:31:04.685Z,12.80
2022-10-25T21:33:31.256Z,11.68
2022-10-25T21:36:08.377Z,12.27
2022-10-25T21:38:35.229Z,12.05
2022-10-25T21:41:13.985Z,11.20
2022-10-25T21:43:45.718Z,12.40
2022-10-25T21:46:13.351Z,11.82
2022-10-25T21:48:40.092Z,11.27
2022-10-25T21:51:07.041Z,10.90
2022-10-25T21:53:33.655Z,11.70
2022-10-25T21:56:07.310Z,11.02
2022-10-25T21:58:33.941Z,11.32
2022-10-25T22:01:00.561Z,11.40
2022-10-25T22:03:29.934Z,10.95
2022-10-25T22:05:57.593Z,11.02
2022-10-25T22:08:24.253Z,10.77
2022-10-25T22:13:26.766Z,9.85
2022-10-25T22:16:08.015Z,11.13
2022-10-25T22:18:35.480Z,10.95
2022-10-25T22:21:05.576Z,10.98
2022-10-25T22:23:33.020Z,12.63
2022-10-25T22:26:05.657Z,9.23
2022-10-25T22:28:35.406Z,9.05
2022-10-25T22:31:06.128Z,8.25
2022-10-25T22:33:33.353Z,9.00
2022-10-25T22:38:37.371Z,9.85
2022-10-25T22:41:06.364Z,10.05
2022-10-25T22:43:36.945Z,9.70
2022-10-25T22:46:07.211Z,9.60
2022-10-25T22:48:37.349Z,9.90
2022-10-25T22:51:04.645Z,11.18
2022-10-25T22:53:31.964Z,10.15
2022-10-25T22:55:59.924Z,9.00
2022-10-25T22:58:28.729Z,9.18
2022-10-25T23:03:33.484Z,9.70
2022-10-25T23:06:00.970Z,8.25
2022-10-25T23:08:28.452Z,8.32
2022-10-25T23:11:02.837Z,9.65
2022-10-25T23:13:34.276Z,10.00
2022-10-25T23:16:01.987Z,10.43
2022-10-25T23:18:29.475Z,10.40
2022-10-25T23:20:57.897Z,13.05
2022-10-25T23:23:25.569Z,13.93
2022-10-25T23:25:52.993Z,13.50
2022-10-25T23:28:20.093Z,17.30
2022-10-25T23:30:46.806Z,17.30
2022-10-25T23:33:14.197Z,11.85
2022-10-25T23:35:41.497Z,13.82
2022-10-25T23:38:11.748Z,10.48
2022-10-25T23:40:39.031Z,11.20
2022-10-25T23:43:06.188Z,10.40
2022-10-25T23:45:32.774Z,9.93
2022-10-25T23:47:59.437Z,9.63
2022-10-25T23:50:26.055Z,10.48
2022-10-25T23:52:52.700Z,11.65
2022-10-25T23:55:19.334Z,12.57
2022-10-25T23:57:45.880Z,14.40
